Hildegaard — C6QU3 — position and weather

sailwx.info

Track history (hours):
 
Tides and Currents Weather Stations Pressure Air Temp Water Temp Dewpoint Dewpoint Depression Visibility Wind Speed Wind Dir Waves Ship Positions

Hildegaard

Last reported at 2016-Feb-12 18:21 UTC. Time now 2016-Feb-13 19:27 UTC.
Position N 41°59' W 009°49'.

Length 248 m; draft 8.6 m.

Type: Ship (hazmat cat A). MMSI: 308574000.

Date/timePositionNaut miles runAvg speedWind from/ knotsBaromVisibWave heightAir tempDewpointWater temp
2016-Feb-12 18:21N 41°59' W 009°49'1011.9
2016-Feb-12 17:33N 41°49' W 009°49'1211.3
2016-Feb-12 16:30N 41°38' W 009°49'1111.6
2016-Feb-12 15:33N 41°27' W 009°49'1212.1
2016-Feb-12 14:33N 41°15' W 009°49'1211.7
2016-Feb-12 13:30N 41°02' W 009°51'1111.6
2016-Feb-12 12:33N 40°51' W 009°52'1311.9
2016-Feb-12 11:30N 40°39' W 009°52'1212.1
2016-Feb-12 10:30N 40°27' W 009°52'1111.7
2016-Feb-12 09:33N 40°16' W 009°52'1212.4
2016-Feb-12 08:33N 40°03' W 009°52'1212.5
2016-Feb-12 07:33N 39°51' W 009°51'1312.6
2016-Feb-12 06:33N 39°38' W 009°50'1111.0
2016-Feb-12 05:33N 39°27' W 009°51'1212.4
2016-Feb-12 04:33N 39°15' W 009°51'1212.5
2016-Feb-12 03:33N 39°02' W 009°51'1212.3
2016-Feb-12 02:33N 38°50' W 009°51'1212.3
2016-Feb-12 01:33N 38°38' W 009°49'1211.9
2016-Feb-12 00:33N 38°29' W 009°39'1211.9
2016-Feb-11 23:33N 38°21' W 009°28'1212.0
2016-Feb-11 22:33N 38°13' W 009°16'1211.9
2016-Feb-11 21:33N 38°05' W 009°05'1211.8
2016-Feb-11 20:33N 37°56' W 008°55'2 1.6
2016-Feb-11 19:32N 37°57' W 008°53'0 0.0
2016-Feb-11 18:32N 37°57' W 008°53'0 0.0
2016-Feb-11 17:32N 37°57' W 008°53'0 0.0
2016-Feb-11 16:32N 37°57' W 008°53'0 0.0
2016-Feb-11 15:32N 37°57' W 008°53'0 0.0
2016-Feb-11 14:32N 37°57' W 008°53'0 0.0
2016-Feb-11 13:32N 37°57' W 008°53'0 0.0
2016-Feb-11 12:32N 37°57' W 008°53'0 0.0
2016-Feb-11 11:32N 37°57' W 008°53'0 0.0
2016-Feb-11 10:32N 37°57' W 008°53'0 0.0
2016-Feb-11 09:32N 37°57' W 008°53'0 0.0
2016-Feb-11 08:29N 37°57' W 008°53'0 0.0
2016-Feb-11 07:32N 37°57' W 008°53'0 0.0
2016-Feb-11 06:32N 37°57' W 008°53'0 0.0
2016-Feb-11 05:32N 37°57' W 008°53'0 0.0
2016-Feb-11 04:32N 37°57' W 008°53'0 0.0
2016-Feb-11 03:29N 37°57' W 008°53'0 0.0
2016-Feb-11 02:32N 37°57' W 008°53'0 0.0
2016-Feb-11 01:32N 37°57' W 008°53'0 0.0
2016-Feb-11 00:32N 37°57' W 008°53'0 0.0
2016-Feb-10 23:32N 37°57' W 008°53'0 0.0
2016-Feb-10 22:32N 37°57' W 008°53'0 0.0
2016-Feb-10 21:32N 37°57' W 008°53'0 0.0
2016-Feb-10 20:32N 37°57' W 008°53'0 0.0
2016-Feb-10 19:32N 37°57' W 008°53'0 0.0
2016-Feb-10 18:32N 37°57' W 008°53'0 0.0
2016-Feb-10 17:32N 37°57' W 008°53'0 0.0
2016-Feb-10 16:32N 37°57' W 008°53'0 0.0
2016-Feb-10 15:32N 37°57' W 008°53'0 0.0
2016-Feb-10 14:31N 37°57' W 008°53'0 0.0
2016-Feb-10 13:31N 37°57' W 008°53'0 0.0
2016-Feb-10 12:31N 37°57' W 008°53'0 0.0
2016-Feb-10 11:31N 37°57' W 008°53'1 0.8
2016-Feb-10 10:33N 37°56' W 008°53'4 3.9
2016-Feb-10 09:33N 37°54' W 008°57'1211.5
2016-Feb-10 08:33N 37°54' W 009°12'1211.8
2016-Feb-10 07:33N 37°54' W 009°27'1211.7
2016-Feb-10 06:33N 37°55' W 009°42'1211.9
2016-Feb-10 05:33N 37°55' W 009°57'10 9.4
2016-Feb-10 04:31N 37°60' W 010°08'1110.4
2016-Feb-10 03:28N 38°11' W 010°07'1212.4
2016-Feb-10 02:31N 38°22' W 010°07'1111.1
2016-Feb-10 01:31N 38°33' W 010°10'1110.8
2016-Feb-10 00:28N 38°44' W 010°12'1011.0
2016-Feb-09 23:31N 38°55' W 010°12'1110.8
2016-Feb-09 22:32N 39°05' W 010°11'1111.6
2016-Feb-09 21:33N 39°17' W 010°11'1211.8
2016-Feb-09 20:33N 39°29' W 010°12'1211.9
2016-Feb-09 19:33N 39°41' W 010°12'1211.9
2016-Feb-09 18:33N 39°53' W 010°12'1211.0
2016-Feb-09 17:30N 40°04' W 010°12'1011.0
2016-Feb-09 16:33N 40°15' W 010°11'1611.1
2016-Feb-09 15:06N 40°31' W 010°11'610.5
2016-Feb-09 14:33N 40°36' W 010°11'1111.4
2016-Feb-09 13:33N 40°48' W 010°12'1110.5
2016-Feb-09 12:30N 40°59' W 010°12'1111.1
2016-Feb-09 11:33N 41°09' W 010°13'1110.8
2016-Feb-09 10:33N 41°20' W 010°13'1110.8
2016-Feb-09 09:33N 41°31' W 010°12'1110.7
2016-Feb-09 08:33N 41°42' W 010°12'1110.1
2016-Feb-09 07:30N 41°52' W 010°12'  
2016-Feb-05 14:33N 51°02' E 001°22'1110.6
2016-Feb-05 13:33N 51°08' E 001°36'10 9.7
2016-Feb-05 12:33N 51°15' E 001°47'9 9.2
2016-Feb-05 11:33N 51°23' E 001°54'9 9.4
2016-Feb-05 10:33N 51°31' E 002°03'309 9.9
2016-Feb-04 03:11N 56°01' W 002°10'711.0
2016-Feb-04 02:33N 56°05' W 002°20'1211.9
2016-Feb-04 01:33N 56°07' W 002°41'1212.2
2016-Feb-04 00:33N 56°03' W 003°02'8 8.0
2016-Feb-03 23:33N 56°02' W 003°16'4 0.9
2016-Feb-03 19:33N 56°00' W 003°22'0 0.0
2016-Feb-03 18:33N 56°00' W 003°22'0 0.0
2016-Feb-03 17:33N 56°00' W 003°22'0 0.0
2016-Feb-03 16:28N 56°00' W 003°22'0 0.0
2016-Feb-03 00:33N 56°00' W 003°22'4 3.6
2016-Feb-02 23:33N 56°02' W 003°16'9 9.1
2016-Feb-02 22:33N 56°04' W 003°00'3 2.8
2016-Feb-02 21:33N 56°05' W 002°55'3 2.7
2016-Feb-02 20:33N 56°06' W 002°51'3 2.6
2016-Feb-02 19:33N 56°08' W 002°52'2 1.5
2016-Feb-02 18:33N 56°07' W 002°50'  
Track history (hours):
 
Tides and Currents Weather Stations Pressure Air Temp Water Temp Dewpoint Dewpoint Depression Visibility Wind Speed Wind Dir Waves Ship Positions

Hildegaard

Last reported at 2016-Feb-12 18:21 UTC. Time now 2016-Feb-13 19:27 UTC.
Position N 41°59' W 009°49'.

Length 248 m; draft 8.6 m.

Type: Ship (hazmat cat A). MMSI: 308574000.

Date/timePositionNaut miles runAvg speedWind from/ knotsBaromVisibWave heightAir tempDewpointWater temp
2016-Feb-12 18:21N 41°59' W 009°49'1011.9
2016-Feb-12 17:33N 41°49' W 009°49'1211.3
2016-Feb-12 16:30N 41°38' W 009°49'1111.6
2016-Feb-12 15:33N 41°27' W 009°49'1212.1
2016-Feb-12 14:33N 41°15' W 009°49'1211.7
2016-Feb-12 13:30N 41°02' W 009°51'1111.6
2016-Feb-12 12:33N 40°51' W 009°52'1311.9
2016-Feb-12 11:30N 40°39' W 009°52'1212.1
2016-Feb-12 10:30N 40°27' W 009°52'1111.7
2016-Feb-12 09:33N 40°16' W 009°52'1212.4
2016-Feb-12 08:33N 40°03' W 009°52'1212.5
2016-Feb-12 07:33N 39°51' W 009°51'1312.6
2016-Feb-12 06:33N 39°38' W 009°50'1111.0
2016-Feb-12 05:33N 39°27' W 009°51'1212.4
2016-Feb-12 04:33N 39°15' W 009°51'1212.5
2016-Feb-12 03:33N 39°02' W 009°51'1212.3
2016-Feb-12 02:33N 38°50' W 009°51'1212.3
2016-Feb-12 01:33N 38°38' W 009°49'1211.9
2016-Feb-12 00:33N 38°29' W 009°39'1211.9
2016-Feb-11 23:33N 38°21' W 009°28'1212.0
2016-Feb-11 22:33N 38°13' W 009°16'1211.9
2016-Feb-11 21:33N 38°05' W 009°05'1211.8
2016-Feb-11 20:33N 37°56' W 008°55'2 1.6
2016-Feb-11 19:32N 37°57' W 008°53'0 0.0
2016-Feb-11 18:32N 37°57' W 008°53'0 0.0
2016-Feb-11 17:32N 37°57' W 008°53'0 0.0
2016-Feb-11 16:32N 37°57' W 008°53'0 0.0
2016-Feb-11 15:32N 37°57' W 008°53'0 0.0
2016-Feb-11 14:32N 37°57' W 008°53'0 0.0
2016-Feb-11 13:32N 37°57' W 008°53'0 0.0
2016-Feb-11 12:32N 37°57' W 008°53'0 0.0
2016-Feb-11 11:32N 37°57' W 008°53'0 0.0
2016-Feb-11 10:32N 37°57' W 008°53'0 0.0
2016-Feb-11 09:32N 37°57' W 008°53'0 0.0
2016-Feb-11 08:29N 37°57' W 008°53'0 0.0
2016-Feb-11 07:32N 37°57' W 008°53'0 0.0
2016-Feb-11 06:32N 37°57' W 008°53'0 0.0
2016-Feb-11 05:32N 37°57' W 008°53'0 0.0
2016-Feb-11 04:32N 37°57' W 008°53'0 0.0
2016-Feb-11 03:29N 37°57' W 008°53'0 0.0
2016-Feb-11 02:32N 37°57' W 008°53'0 0.0
2016-Feb-11 01:32N 37°57' W 008°53'0 0.0
2016-Feb-11 00:32N 37°57' W 008°53'0 0.0
2016-Feb-10 23:32N 37°57' W 008°53'0 0.0
2016-Feb-10 22:32N 37°57' W 008°53'0 0.0
2016-Feb-10 21:32N 37°57' W 008°53'0 0.0
2016-Feb-10 20:32N 37°57' W 008°53'0 0.0
2016-Feb-10 19:32N 37°57' W 008°53'0 0.0
2016-Feb-10 18:32N 37°57' W 008°53'0 0.0
2016-Feb-10 17:32N 37°57' W 008°53'0 0.0
2016-Feb-10 16:32N 37°57' W 008°53'0 0.0
2016-Feb-10 15:32N 37°57' W 008°53'0 0.0
2016-Feb-10 14:31N 37°57' W 008°53'0 0.0
2016-Feb-10 13:31N 37°57' W 008°53'0 0.0
2016-Feb-10 12:31N 37°57' W 008°53'0 0.0
2016-Feb-10 11:31N 37°57' W 008°53'1 0.8
2016-Feb-10 10:33N 37°56' W 008°53'4 3.9
2016-Feb-10 09:33N 37°54' W 008°57'1211.5
2016-Feb-10 08:33N 37°54' W 009°12'1211.8
2016-Feb-10 07:33N 37°54' W 009°27'1211.7
2016-Feb-10 06:33N 37°55' W 009°42'1211.9
2016-Feb-10 05:33N 37°55' W 009°57'10 9.4
2016-Feb-10 04:31N 37°60' W 010°08'1110.4
2016-Feb-10 03:28N 38°11' W 010°07'1212.4
2016-Feb-10 02:31N 38°22' W 010°07'1111.1
2016-Feb-10 01:31N 38°33' W 010°10'1110.8
2016-Feb-10 00:28N 38°44' W 010°12'1011.0
2016-Feb-09 23:31N 38°55' W 010°12'1110.8
2016-Feb-09 22:32N 39°05' W 010°11'1111.6
2016-Feb-09 21:33N 39°17' W 010°11'1211.8
2016-Feb-09 20:33N 39°29' W 010°12'1211.9
2016-Feb-09 19:33N 39°41' W 010°12'1211.9
2016-Feb-09 18:33N 39°53' W 010°12'1211.0
2016-Feb-09 17:30N 40°04' W 010°12'1011.0
2016-Feb-09 16:33N 40°15' W 010°11'1611.1
2016-Feb-09 15:06N 40°31' W 010°11'610.5
2016-Feb-09 14:33N 40°36' W 010°11'1111.4
2016-Feb-09 13:33N 40°48' W 010°12'1110.5
2016-Feb-09 12:30N 40°59' W 010°12'1111.1
2016-Feb-09 11:33N 41°09' W 010°13'1110.8
2016-Feb-09 10:33N 41°20' W 010°13'1110.8
2016-Feb-09 09:33N 41°31' W 010°12'1110.7
2016-Feb-09 08:33N 41°42' W 010°12'1110.1
2016-Feb-09 07:30N 41°52' W 010°12'  
2016-Feb-05 14:33N 51°02' E 001°22'1110.6
2016-Feb-05 13:33N 51°08' E 001°36'10 9.7
2016-Feb-05 12:33N 51°15' E 001°47'9 9.2
2016-Feb-05 11:33N 51°23' E 001°54'9 9.4
2016-Feb-05 10:33N 51°31' E 002°03'309 9.9
2016-Feb-04 03:11N 56°01' W 002°10'711.0
2016-Feb-04 02:33N 56°05' W 002°20'1211.9
2016-Feb-04 01:33N 56°07' W 002°41'1212.2
2016-Feb-04 00:33N 56°03' W 003°02'8 8.0
2016-Feb-03 23:33N 56°02' W 003°16'4 0.9
2016-Feb-03 19:33N 56°00' W 003°22'0 0.0
2016-Feb-03 18:33N 56°00' W 003°22'0 0.0
2016-Feb-03 17:33N 56°00' W 003°22'0 0.0
2016-Feb-03 16:28N 56°00' W 003°22'0 0.0
2016-Feb-03 00:33N 56°00' W 003°22'4 3.6
2016-Feb-02 23:33N 56°02' W 003°16'9 9.1
2016-Feb-02 22:33N 56°04' W 003°00'3 2.8
2016-Feb-02 21:33N 56°05' W 002°55'3 2.7
2016-Feb-02 20:33N 56°06' W 002°51'3 2.6
2016-Feb-02 19:33N 56°08' W 002°52'2 1.5
2016-Feb-02 18:33N 56°07' W 002°50'  

Dump ship's entire track history